sensor_id;sensor_type;location;lat;lon;timestamp;temperature;humidity
14924;DHT22;7554;43.600;1.480;2022-09-02T00:01:18;23.60;1.00
14924;DHT22;7554;43.600;1.480;2022-09-02T00:03:48;23.50;1.00
14924;DHT22;7554;43.600;1.480;2022-09-02T00:06:17;23.50;1.00
14924;DHT22;7554;43.600;1.480;2022-09-02T00:08:45;23.50;1.00
14924;DHT22;7554;43.600;1.480;2022-09-02T00:11:14;23.50;1.00
14924;DHT22;7554;43.600;1.480;2022-09-02T00:13:43;23.50;1.00
14924;DHT22;7554;43.600;1.480;2022-09-02T00:16:11;23.50;1.00
14924;DHT22;7554;43.600;1.480;2022-09-02T00:18:40;23.50;1.00
14924;DHT22;7554;43.600;1.480;2022-09-02T00:21:10;23.40;1.00
14924;DHT22;7554;43.600;1.480;2022-09-02T00:23:39;23.40;1.00
14924;DHT22;7554;43.600;1.480;2022-09-02T00:26:07;23.30;1.00
14924;DHT22;7554;43.600;1.480;2022-09-02T00:28:34;23.30;1.00
14924;DHT22;7554;43.600;1.480;2022-09-02T00:31:02;23.20;1.00
14924;DHT22;7554;43.600;1.480;2022-09-02T00:33:29;23.20;1.00
14924;DHT22;7554;43.600;1.480;2022-09-02T00:35:58;23.10;1.00
14924;DHT22;7554;43.600;1.480;2022-09-02T00:38:27;23.20;1.00
14924;DHT22;7554;43.600;1.480;2022-09-02T00:40:58;23.20;1.00
14924;DHT22;7554;43.600;1.480;2022-09-02T00:43:39;23.10;1.00
14924;DHT22;7554;43.600;1.480;2022-09-02T00:46:07;23.10;1.00
14924;DHT22;7554;43.600;1.480;2022-09-02T00:48:37;23.10;1.00
14924;DHT22;7554;43.600;1.480;2022-09-02T00:51:06;23.10;1.00
14924;DHT22;7554;43.600;1.480;2022-09-02T00:53:37;23.10;1.00
14924;DHT22;7554;43.600;1.480;2022-09-02T00:56:05;23.10;1.00
14924;DHT22;7554;43.600;1.480;2022-09-02T00:58:36;23.00;1.00
14924;DHT22;7554;43.600;1.480;2022-09-02T01:01:04;23.00;1.00
14924;DHT22;7554;43.600;1.480;2022-09-02T01:03:32;23.00;1.00
14924;DHT22;7554;43.600;1.480;2022-09-02T01:06:00;23.00;1.00
14924;DHT22;7554;43.600;1.480;2022-09-02T01:08:32;23.00;1.00
14924;DHT22;7554;43.600;1.480;2022-09-02T01:11:03;23.00;1.00
14924;DHT22;7554;43.600;1.480;2022-09-02T01:13:36;23.00;1.00
14924;DHT22;7554;43.600;1.480;2022-09-02T01:16:09;23.00;1.00
14924;DHT22;7554;43.600;1.480;2022-09-02T01:18:38;23.00;1.00
14924;DHT22;7554;43.600;1.480;2022-09-02T01:21:06;23.00;1.00
14924;DHT22;7554;43.600;1.480;2022-09-02T01:23:35;23.00;1.00
14924;DHT22;7554;43.600;1.480;2022-09-02T01:26:04;22.90;1.00
14924;DHT22;7554;43.600;1.480;2022-09-02T01:28:33;22.90;1.00
14924;DHT22;7554;43.600;1.480;2022-09-02T01:31:01;22.80;1.00
14924;DHT22;7554;43.600;1.480;2022-09-02T01:33:28;22.80;1.00
14924;DHT22;7554;43.600;1.480;2022-09-02T01:35:55;22.80;1.00
14924;DHT22;7554;43.600;1.480;2022-09-02T01:38:24;22.70;1.00
14924;DHT22;7554;43.600;1.480;2022-09-02T01:40:53;22.70;1.00
14924;DHT22;7554;43.600;1.480;2022-09-02T01:43:22;22.60;1.00
14924;DHT22;7554;43.600;1.480;2022-09-02T01:45:52;22.60;1.00
14924;DHT22;7554;43.600;1.480;2022-09-02T01:48:20;22.60;1.00
14924;DHT22;7554;43.600;1.480;2022-09-02T01:50:50;22.60;1.00
14924;DHT22;7554;43.600;1.480;2022-09-02T01:53:18;22.60;1.00
14924;DHT22;7554;43.600;1.480;2022-09-02T01:55:45;22.50;1.00
14924;DHT22;7554;43.600;1.480;2022-09-02T01:58:15;22.50;1.00
14924;DHT22;7554;43.600;1.480;2022-09-02T02:00:42;22.50;1.00
14924;DHT22;7554;43.600;1.480;2022-09-02T02:03:09;22.40;1.00
14924;DHT22;7554;43.600;1.480;2022-09-02T02:05:37;22.40;1.00
14924;DHT22;7554;43.600;1.480;2022-09-02T02:08:05;22.40;1.00
14924;DHT22;7554;43.600;1.480;2022-09-02T02:10:33;22.40;1.00
14924;DHT22;7554;43.600;1.480;2022-09-02T02:13:01;22.30;1.00
14924;DHT22;7554;43.600;1.480;2022-09-02T02:15:30;22.30;1.00
14924;DHT22;7554;43.600;1.480;2022-09-02T02:17:57;22.40;1.00
14924;DHT22;7554;43.600;1.480;2022-09-02T02:20:24;22.40;1.00
14924;DHT22;7554;43.600;1.480;2022-09-02T02:22:52;22.40;1.00
14924;DHT22;7554;43.600;1.480;2022-09-02T02:25:20;22.40;1.00
14924;DHT22;7554;43.600;1.480;2022-09-02T02:27:47;22.30;1.00
14924;DHT22;7554;43.600;1.480;2022-09-02T02:30:16;22.30;1.00
14924;DHT22;7554;43.600;1.480;2022-09-02T02:32:46;22.30;1.00
14924;DHT22;7554;43.600;1.480;2022-09-02T02:35:14;22.20;1.00
14924;DHT22;7554;43.600;1.480;2022-09-02T02:37:41;22.30;1.00
14924;DHT22;7554;43.600;1.480;2022-09-02T02:40:11;22.20;1.00
14924;DHT22;7554;43.600;1.480;2022-09-02T02:42:39;22.20;1.00
14924;DHT22;7554;43.600;1.480;2022-09-02T02:45:07;22.20;1.00
14924;DHT22;7554;43.600;1.480;2022-09-02T02:47:38;22.20;1.00
14924;DHT22;7554;43.600;1.480;2022-09-02T02:50:10;22.20;1.00
14924;DHT22;7554;43.600;1.480;2022-09-02T02:52:38;22.10;1.00
14924;DHT22;7554;43.600;1.480;2022-09-02T02:55:07;22.10;1.00
14924;DHT22;7554;43.600;1.480;2022-09-02T02:57:35;22.10;1.00
14924;DHT22;7554;43.600;1.480;2022-09-02T03:00:06;22.10;1.00
14924;DHT22;7554;43.600;1.480;2022-09-02T03:02:34;22.00;1.00
14924;DHT22;7554;43.600;1.480;2022-09-02T03:05:04;22.00;1.00
14924;DHT22;7554;43.600;1.480;2022-09-02T03:07:33;22.00;1.00
14924;DHT22;7554;43.600;1.480;2022-09-02T03:10:00;22.00;1.00
14924;DHT22;7554;43.600;1.480;2022-09-02T03:12:28;21.90;1.00
14924;DHT22;7554;43.600;1.480;2022-09-02T03:14:57;21.90;1.00
14924;DHT22;7554;43.600;1.480;2022-09-02T03:17:26;21.90;1.00
14924;DHT22;7554;43.600;1.480;2022-09-02T03:19:53;21.80;1.00
14924;DHT22;7554;43.600;1.480;2022-09-02T03:22:23;21.80;1.00
14924;DHT22;7554;43.600;1.480;2022-09-02T03:24:52;21.80;1.00
14924;DHT22;7554;43.600;1.480;2022-09-02T03:27:20;21.80;1.00
14924;DHT22;7554;43.600;1.480;2022-09-02T03:29:47;21.70;1.00
14924;DHT22;7554;43.600;1.480;2022-09-02T03:32:15;21.70;1.00
14924;DHT22;7554;43.600;1.480;2022-09-02T03:34:42;21.70;1.00
14924;DHT22;7554;43.600;1.480;2022-09-02T03:37:09;21.60;1.00
14924;DHT22;7554;43.600;1.480;2022-09-02T03:39:37;21.60;1.00
14924;DHT22;7554;43.600;1.480;2022-09-02T03:42:07;21.60;1.00
14924;DHT22;7554;43.600;1.480;2022-09-02T03:44:34;21.70;1.00
14924;DHT22;7554;43.600;1.480;2022-09-02T03:47:02;21.80;1.00
14924;DHT22;7554;43.600;1.480;2022-09-02T03:49:29;21.80;1.00
14924;DHT22;7554;43.600;1.480;2022-09-02T03:51:56;21.90;1.00
14924;DHT22;7554;43.600;1.480;2022-09-02T03:54:24;21.90;1.00
14924;DHT22;7554;43.600;1.480;2022-09-02T03:56:52;21.90;1.00
14924;DHT22;7554;43.600;1.480;2022-09-02T03:59:20;22.00;1.00
14924;DHT22;7554;43.600;1.480;2022-09-02T04:01:48;22.00;1.00
14924;DHT22;7554;43.600;1.480;2022-09-02T04:04:15;21.90;1.00
14924;DHT22;7554;43.600;1.480;2022-09-02T04:06:44;21.90;1.00
14924;DHT22;7554;43.600;1.480;2022-09-02T04:09:12;21.90;1.00
14924;DHT22;7554;43.600;1.480;2022-09-02T04:11:39;21.90;1.00
14924;DHT22;7554;43.600;1.480;2022-09-02T04:14:08;21.80;1.00
14924;DHT22;7554;43.600;1.480;2022-09-02T04:16:37;21.80;1.00
14924;DHT22;7554;43.600;1.480;2022-09-02T04:19:05;21.80;1.00
14924;DHT22;7554;43.600;1.480;2022-09-02T04:21:36;21.70;1.00
14924;DHT22;7554;43.600;1.480;2022-09-02T04:24:05;21.70;1.00
14924;DHT22;7554;43.600;1.480;2022-09-02T04:26:34;21.70;1.00
14924;DHT22;7554;43.600;1.480;2022-09-02T04:29:03;21.70;1.00
14924;DHT22;7554;43.600;1.480;2022-09-02T04:31:31;21.70;1.00
14924;DHT22;7554;43.600;1.480;2022-09-02T04:33:59;21.60;1.00
14924;DHT22;7554;43.600;1.480;2022-09-02T04:36:27;21.60;1.00
14924;DHT22;7554;43.600;1.480;2022-09-02T04:38:55;21.60;1.00
14924;DHT22;7554;43.600;1.480;2022-09-02T04:41:25;21.60;1.00
14924;DHT22;7554;43.600;1.480;2022-09-02T04:43:54;21.50;1.00
14924;DHT22;7554;43.600;1.480;2022-09-02T04:46:22;21.50;1.00
14924;DHT22;7554;43.600;1.480;2022-09-02T04:48:50;21.50;1.00
14924;DHT22;7554;43.600;1.480;2022-09-02T04:51:22;21.40;1.00
14924;DHT22;7554;43.600;1.480;2022-09-02T04:53:51;21.40;1.00
14924;DHT22;7554;43.600;1.480;2022-09-02T04:56:22;21.40;1.00
14924;DHT22;7554;43.600;1.480;2022-09-02T04:58:51;21.30;1.00
14924;DHT22;7554;43.600;1.480;2022-09-02T05:01:20;21.30;1.00
14924;DHT22;7554;43.600;1.480;2022-09-02T05:03:50;21.30;1.00
14924;DHT22;7554;43.600;1.480;2022-09-02T05:06:22;21.30;1.00
14924;DHT22;7554;43.600;1.480;2022-09-02T05:08:51;21.30;1.00
14924;DHT22;7554;43.600;1.480;2022-09-02T05:11:21;21.20;1.00
14924;DHT22;7554;43.600;1.480;2022-09-02T05:13:50;21.30;1.00
14924;DHT22;7554;43.600;1.480;2022-09-02T05:16:18;21.30;1.00
14924;DHT22;7554;43.600;1.480;2022-09-02T05:18:46;21.40;1.00
14924;DHT22;7554;43.600;1.480;2022-09-02T05:21:13;21.30;1.00
14924;DHT22;7554;43.600;1.480;2022-09-02T05:23:42;21.30;1.00
14924;DHT22;7554;43.600;1.480;2022-09-02T05:26:11;21.40;1.00
14924;DHT22;7554;43.600;1.480;2022-09-02T05:28:40;21.50;1.00
14924;DHT22;7554;43.600;1.480;2022-09-02T05:31:09;21.50;1.00
14924;DHT22;7554;43.600;1.480;2022-09-02T05:33:37;21.50;1.00
14924;DHT22;7554;43.600;1.480;2022-09-02T05:36:07;21.70;1.00
14924;DHT22;7554;43.600;1.480;2022-09-02T05:38:34;21.90;1.00
14924;DHT22;7554;43.600;1.480;2022-09-02T05:41:05;22.20;1.00
14924;DHT22;7554;43.600;1.480;2022-09-02T05:43:35;22.50;1.00
14924;DHT22;7554;43.600;1.480;2022-09-02T05:46:04;22.80;1.00
14924;DHT22;7554;43.600;1.480;2022-09-02T05:48:33;22.50;1.00
14924;DHT22;7554;43.600;1.480;2022-09-02T05:51:18;22.20;1.00
14924;DHT22;7554;43.600;1.480;2022-09-02T05:53:45;22.50;1.00
14924;DHT22;7554;43.600;1.480;2022-09-02T05:56:14;22.60;1.00
14924;DHT22;7554;43.600;1.480;2022-09-02T05:58:42;22.50;1.00
14924;DHT22;7554;43.600;1.480;2022-09-02T06:01:10;22.60;1.00
14924;DHT22;7554;43.600;1.480;2022-09-02T06:03:38;22.40;1.00
14924;DHT22;7554;43.600;1.480;2022-09-02T06:06:06;22.40;1.00
14924;DHT22;7554;43.600;1.480;2022-09-02T06:08:34;22.50;1.00
14924;DHT22;7554;43.600;1.480;2022-09-02T06:11:02;23.10;1.00
14924;DHT22;7554;43.600;1.480;2022-09-02T06:13:33;24.50;1.00
14924;DHT22;7554;43.600;1.480;2022-09-02T06:16:02;24.80;1.00
14924;DHT22;7554;43.600;1.480;2022-09-02T06:18:29;25.50;1.00
14924;DHT22;7554;43.600;1.480;2022-09-02T06:20:56;26.00;1.00
14924;DHT22;7554;43.600;1.480;2022-09-02T06:23:24;24.70;1.00
14924;DHT22;7554;43.600;1.480;2022-09-02T06:25:51;24.10;1.00
14924;DHT22;7554;43.600;1.480;2022-09-02T06:28:19;24.00;1.00
14924;DHT22;7554;43.600;1.480;2022-09-02T06:30:47;25.40;1.00
14924;DHT22;7554;43.600;1.480;2022-09-02T06:33:15;27.10;1.00
14924;DHT22;7554;43.600;1.480;2022-09-02T06:35:44;27.70;1.00
14924;DHT22;7554;43.600;1.480;2022-09-02T06:38:11;26.50;1.00
14924;DHT22;7554;43.600;1.480;2022-09-02T06:40:46;25.30;1.00
14924;DHT22;7554;43.600;1.480;2022-09-02T06:43:13;24.80;1.00
14924;DHT22;7554;43.600;1.480;2022-09-02T06:45:41;24.50;1.00
14924;DHT22;7554;43.600;1.480;2022-09-02T06:48:11;24.50;1.00
14924;DHT22;7554;43.600;1.480;2022-09-02T06:50:40;25.10;1.00
14924;DHT22;7554;43.600;1.480;2022-09-02T06:53:08;25.30;1.00
14924;DHT22;7554;43.600;1.480;2022-09-02T06:55:37;24.70;1.00
14924;DHT22;7554;43.600;1.480;2022-09-02T06:58:05;24.90;1.00
14924;DHT22;7554;43.600;1.480;2022-09-02T07:00:34;24.70;1.00
14924;DHT22;7554;43.600;1.480;2022-09-02T07:03:02;24.30;1.00
14924;DHT22;7554;43.600;1.480;2022-09-02T07:05:58;24.50;1.00
14924;DHT22;7554;43.600;1.480;2022-09-02T07:08:25;24.80;1.00
14924;DHT22;7554;43.600;1.480;2022-09-02T07:10:52;25.10;1.00
14924;DHT22;7554;43.600;1.480;2022-09-02T07:13:20;25.30;1.00
14924;DHT22;7554;43.600;1.480;2022-09-02T07:15:47;25.30;1.00
14924;DHT22;7554;43.600;1.480;2022-09-02T07:18:14;25.10;1.00
14924;DHT22;7554;43.600;1.480;2022-09-02T07:20:44;24.70;1.00
14924;DHT22;7554;43.600;1.480;2022-09-02T07:23:14;24.50;1.00
14924;DHT22;7554;43.600;1.480;2022-09-02T07:25:42;24.70;1.00
14924;DHT22;7554;43.600;1.480;2022-09-02T07:28:10;25.30;1.00
14924;DHT22;7554;43.600;1.480;2022-09-02T07:30:41;27.00;1.00
14924;DHT22;7554;43.600;1.480;2022-09-02T07:33:09;28.80;1.00
14924;DHT22;7554;43.600;1.480;2022-09-02T07:35:39;27.30;1.00
14924;DHT22;7554;43.600;1.480;2022-09-02T07:38:06;26.20;1.00
14924;DHT22;7554;43.600;1.480;2022-09-02T07:40:37;25.60;1.00
14924;DHT22;7554;43.600;1.480;2022-09-02T07:43:07;25.10;1.00
14924;DHT22;7554;43.600;1.480;2022-09-02T07:45:36;24.90;1.00
14924;DHT22;7554;43.600;1.480;2022-09-02T07:48:04;24.80;1.00
14924;DHT22;7554;43.600;1.480;2022-09-02T07:50:33;24.90;1.00
14924;DHT22;7554;43.600;1.480;2022-09-02T07:53:02;26.10;1.00
14924;DHT22;7554;43.600;1.480;2022-09-02T07:55:32;29.60;1.00
14924;DHT22;7554;43.600;1.480;2022-09-02T07:58:01;28.90;1.00
14924;DHT22;7554;43.600;1.480;2022-09-02T08:00:29;27.90;1.00
14924;DHT22;7554;43.600;1.480;2022-09-02T08:02:57;28.10;1.00
14924;DHT22;7554;43.600;1.480;2022-09-02T08:05:25;27.60;1.00
14924;DHT22;7554;43.600;1.480;2022-09-02T08:07:53;29.80;1.00
14924;DHT22;7554;43.600;1.480;2022-09-02T08:10:21;31.10;1.00
14924;DHT22;7554;43.600;1.480;2022-09-02T08:12:52;31.30;1.00
14924;DHT22;7554;43.600;1.480;2022-09-02T08:15:21;30.70;1.00
14924;DHT22;7554;43.600;1.480;2022-09-02T08:17:48;31.00;1.00
14924;DHT22;7554;43.600;1.480;2022-09-02T08:20:16;30.00;1.00
14924;DHT22;7554;43.600;1.480;2022-09-02T08:22:43;29.40;1.00
14924;DHT22;7554;43.600;1.480;2022-09-02T08:25:11;30.20;1.00
14924;DHT22;7554;43.600;1.480;2022-09-02T08:27:39;31.20;1.00
14924;DHT22;7554;43.600;1.480;2022-09-02T08:30:07;30.80;1.00
14924;DHT22;7554;43.600;1.480;2022-09-02T08:32:37;30.50;1.00
14924;DHT22;7554;43.600;1.480;2022-09-02T08:35:06;30.30;1.00
14924;DHT22;7554;43.600;1.480;2022-09-02T08:37:34;30.50;1.00
14924;DHT22;7554;43.600;1.480;2022-09-02T08:40:04;31.90;1.00
14924;DHT22;7554;43.600;1.480;2022-09-02T08:42:34;30.70;1.00
14924;DHT22;7554;43.600;1.480;2022-09-02T08:45:07;29.80;1.00
14924;DHT22;7554;43.600;1.480;2022-09-02T08:47:38;29.20;1.00
14924;DHT22;7554;43.600;1.480;2022-09-02T08:50:11;28.80;1.00
14924;DHT22;7554;43.600;1.480;2022-09-02T08:52:43;28.90;1.00
14924;DHT22;7554;43.600;1.480;2022-09-02T08:55:17;29.00;1.00
14924;DHT22;7554;43.600;1.480;2022-09-02T08:57:45;29.10;1.00
14924;DHT22;7554;43.600;1.480;2022-09-02T09:00:14;29.10;1.00
14924;DHT22;7554;43.600;1.480;2022-09-02T09:02:52;29.10;1.00
14924;DHT22;7554;43.600;1.480;2022-09-02T09:05:29;29.10;1.00
14924;DHT22;7554;43.600;1.480;2022-09-02T09:08:12;29.50;1.00
14924;DHT22;7554;43.600;1.480;2022-09-02T09:10:49;29.50;1.00
14924;DHT22;7554;43.600;1.480;2022-09-02T09:16:34;29.00;1.00
14924;DHT22;7554;43.600;1.480;2022-09-02T09:19:09;28.80;1.00
14924;DHT22;7554;43.600;1.480;2022-09-02T09:21:38;29.10;1.00
14924;DHT22;7554;43.600;1.480;2022-09-02T09:24:12;29.10;1.00
14924;DHT22;7554;43.600;1.480;2022-09-02T09:26:43;28.90;1.00
14924;DHT22;7554;43.600;1.480;2022-09-02T09:29:12;28.70;1.00
14924;DHT22;7554;43.600;1.480;2022-09-02T09:31:40;28.60;1.00
14924;DHT22;7554;43.600;1.480;2022-09-02T09:34:11;28.90;1.00
14924;DHT22;7554;43.600;1.480;2022-09-02T09:36:45;28.90;1.00
14924;DHT22;7554;43.600;1.480;2022-09-02T09:39:19;29.00;1.00
14924;DHT22;7554;43.600;1.480;2022-09-02T09:41:48;29.00;1.00
14924;DHT22;7554;43.600;1.480;2022-09-02T09:44:38;28.60;1.00
14924;DHT22;7554;43.600;1.480;2022-09-02T09:47:07;28.70;1.00
14924;DHT22;7554;43.600;1.480;2022-09-02T09:49:37;28.90;1.00
14924;DHT22;7554;43.600;1.480;2022-09-02T09:52:05;29.00;1.00
14924;DHT22;7554;43.600;1.480;2022-09-02T09:54:32;29.10;1.00
14924;DHT22;7554;43.600;1.480;2022-09-02T09:57:15;29.50;1.00
14924;DHT22;7554;43.600;1.480;2022-09-02T09:59:45;29.40;1.00
14924;DHT22;7554;43.600;1.480;2022-09-02T10:02:22;29.20;1.00
14924;DHT22;7554;43.600;1.480;2022-09-02T10:04:54;29.50;1.00
14924;DHT22;7554;43.600;1.480;2022-09-02T10:07:35;29.80;1.00
14924;DHT22;7554;43.600;1.480;2022-09-02T10:10:15;30.20;1.00
14924;DHT22;7554;43.600;1.480;2022-09-02T10:12:44;29.90;1.00
14924;DHT22;7554;43.600;1.480;2022-09-02T10:15:12;29.80;1.00
14924;DHT22;7554;43.600;1.480;2022-09-02T10:17:45;29.60;1.00
14924;DHT22;7554;43.600;1.480;2022-09-02T10:20:21;29.20;1.00
14924;DHT22;7554;43.600;1.480;2022-09-02T10:23:08;29.40;1.00
14924;DHT22;7554;43.600;1.480;2022-09-02T10:25:46;29.50;1.00
14924;DHT22;7554;43.600;1.480;2022-09-02T10:28:27;29.40;1.00
14924;DHT22;7554;43.600;1.480;2022-09-02T10:31:06;29.20;1.00
14924;DHT22;7554;43.600;1.480;2022-09-02T10:33:41;29.10;1.00
14924;DHT22;7554;43.600;1.480;2022-09-02T10:36:16;28.80;1.00
14924;DHT22;7554;43.600;1.480;2022-09-02T10:38:47;28.90;1.00
14924;DHT22;7554;43.600;1.480;2022-09-02T10:41:26;29.10;1.00
14924;DHT22;7554;43.600;1.480;2022-09-02T10:44:07;29.50;1.00
14924;DHT22;7554;43.600;1.480;2022-09-02T10:46:43;29.30;1.00
14924;DHT22;7554;43.600;1.480;2022-09-02T10:49:20;29.40;1.00
14924;DHT22;7554;43.600;1.480;2022-09-02T10:51:56;29.50;1.00
14924;DHT22;7554;43.600;1.480;2022-09-02T10:54:37;29.50;1.00
14924;DHT22;7554;43.600;1.480;2022-09-02T10:57:13;28.90;1.00
14924;DHT22;7554;43.600;1.480;2022-09-02T10:59:46;29.10;1.00
14924;DHT22;7554;43.600;1.480;2022-09-02T11:02:19;29.40;1.00
14924;DHT22;7554;43.600;1.480;2022-09-02T11:04:50;29.70;1.00
14924;DHT22;7554;43.600;1.480;2022-09-02T11:07:27;29.60;1.00
14924;DHT22;7554;43.600;1.480;2022-09-02T11:09:58;29.50;1.00
14924;DHT22;7554;43.600;1.480;2022-09-02T11:12:29;29.70;1.00
14924;DHT22;7554;43.600;1.480;2022-09-02T11:15:04;29.80;1.00
14924;DHT22;7554;43.600;1.480;2022-09-02T11:17:38;29.60;1.00
14924;DHT22;7554;43.600;1.480;2022-09-02T11:20:13;29.30;1.00
14924;DHT22;7554;43.600;1.480;2022-09-02T11:22:51;29.20;1.00
14924;DHT22;7554;43.600;1.480;2022-09-02T11:25:23;28.90;1.00
14924;DHT22;7554;43.600;1.480;2022-09-02T11:27:58;29.00;1.00
14924;DHT22;7554;43.600;1.480;2022-09-02T11:30:36;29.10;1.00
14924;DHT22;7554;43.600;1.480;2022-09-02T11:33:12;29.00;1.00
14924;DHT22;7554;43.600;1.480;2022-09-02T11:35:42;28.90;1.00
14924;DHT22;7554;43.600;1.480;2022-09-02T11:38:30;28.90;1.00
14924;DHT22;7554;43.600;1.480;2022-09-02T11:41:27;28.90;1.00
14924;DHT22;7554;43.600;1.480;2022-09-02T11:44:04;28.90;1.00
14924;DHT22;7554;43.600;1.480;2022-09-02T11:47:07;29.00;1.00
14924;DHT22;7554;43.600;1.480;2022-09-02T11:50:02;28.80;1.00
14924;DHT22;7554;43.600;1.480;2022-09-02T11:52:47;28.90;1.00
14924;DHT22;7554;43.600;1.480;2022-09-02T11:55:21;28.70;1.00
14924;DHT22;7554;43.600;1.480;2022-09-02T11:57:52;28.50;1.00
14924;DHT22;7554;43.600;1.480;2022-09-02T12:00:31;28.60;1.00
14924;DHT22;7554;43.600;1.480;2022-09-02T12:03:10;28.50;1.00
14924;DHT22;7554;43.600;1.480;2022-09-02T12:06:07;28.60;1.00
14924;DHT22;7554;43.600;1.480;2022-09-02T12:09:05;28.70;1.00
14924;DHT22;7554;43.600;1.480;2022-09-02T12:11:42;28.60;1.00
14924;DHT22;7554;43.600;1.480;2022-09-02T12:17:00;28.80;1.00
14924;DHT22;7554;43.600;1.480;2022-09-02T12:19:41;28.80;1.00
14924;DHT22;7554;43.600;1.480;2022-09-02T12:22:30;29.00;1.00
14924;DHT22;7554;43.600;1.480;2022-09-02T12:25:00;28.70;1.00
14924;DHT22;7554;43.600;1.480;2022-09-02T12:27:32;28.80;1.00
14924;DHT22;7554;43.600;1.480;2022-09-02T12:30:02;28.90;1.00
14924;DHT22;7554;43.600;1.480;2022-09-02T12:33:01;29.20;1.00
14924;DHT22;7554;43.600;1.480;2022-09-02T12:35:32;29.30;1.00
14924;DHT22;7554;43.600;1.480;2022-09-02T12:38:25;29.50;1.00
14924;DHT22;7554;43.600;1.480;2022-09-02T12:41:05;29.40;1.00
14924;DHT22;7554;43.600;1.480;2022-09-02T12:43:46;29.40;1.00
14924;DHT22;7554;43.600;1.480;2022-09-02T12:46:22;29.20;1.00
14924;DHT22;7554;43.600;1.480;2022-09-02T12:48:58;29.30;1.00
14924;DHT22;7554;43.600;1.480;2022-09-02T12:51:52;29.40;1.00
14924;DHT22;7554;43.600;1.480;2022-09-02T12:54:26;29.60;1.00
14924;DHT22;7554;43.600;1.480;2022-09-02T12:56:57;29.50;1.00
14924;DHT22;7554;43.600;1.480;2022-09-02T12:59:29;29.80;1.00
14924;DHT22;7554;43.600;1.480;2022-09-02T13:02:08;29.70;1.00
14924;DHT22;7554;43.600;1.480;2022-09-02T13:04:48;29.90;1.00
14924;DHT22;7554;43.600;1.480;2022-09-02T13:07:53;30.00;1.00
14924;DHT22;7554;43.600;1.480;2022-09-02T13:16:36;30.60;1.00
14924;DHT22;7554;43.600;1.480;2022-09-02T13:19:35;30.40;1.00
14924;DHT22;7554;43.600;1.480;2022-09-02T13:22:42;30.70;1.00
14924;DHT22;7554;43.600;1.480;2022-09-02T13:25:49;31.10;1.00
14924;DHT22;7554;43.600;1.480;2022-09-02T13:28:48;30.90;1.00
14924;DHT22;7554;43.600;1.480;2022-09-02T13:31:19;30.70;1.00
14924;DHT22;7554;43.600;1.480;2022-09-02T13:33:57;30.90;1.00
14924;DHT22;7554;43.600;1.480;2022-09-02T13:36:27;31.00;1.00
14924;DHT22;7554;43.600;1.480;2022-09-02T13:38:55;31.00;1.00
14924;DHT22;7554;43.600;1.480;2022-09-02T13:41:29;30.70;1.00
14924;DHT22;7554;43.600;1.480;2022-09-02T13:44:08;30.70;1.00
14924;DHT22;7554;43.600;1.480;2022-09-02T13:46:43;30.70;1.00
14924;DHT22;7554;43.600;1.480;2022-09-02T13:49:32;30.90;1.00
14924;DHT22;7554;43.600;1.480;2022-09-02T13:52:01;30.90;1.00
14924;DHT22;7554;43.600;1.480;2022-09-02T13:54:33;31.10;1.00
14924;DHT22;7554;43.600;1.480;2022-09-02T13:57:02;31.00;1.00
14924;DHT22;7554;43.600;1.480;2022-09-02T13:59:36;30.90;1.00
14924;DHT22;7554;43.600;1.480;2022-09-02T14:02:23;30.80;1.00
14924;DHT22;7554;43.600;1.480;2022-09-02T14:04:55;30.70;1.00
14924;DHT22;7554;43.600;1.480;2022-09-02T14:07:27;30.60;1.00
14924;DHT22;7554;43.600;1.480;2022-09-02T14:09:57;30.60;1.00
14924;DHT22;7554;43.600;1.480;2022-09-02T14:12:27;30.50;1.00
14924;DHT22;7554;43.600;1.480;2022-09-02T14:14:56;30.30;1.00
14924;DHT22;7554;43.600;1.480;2022-09-02T14:17:24;30.20;1.00
14924;DHT22;7554;43.600;1.480;2022-09-02T14:20:15;30.00;1.00
14924;DHT22;7554;43.600;1.480;2022-09-02T14:22:50;30.00;1.00
14924;DHT22;7554;43.600;1.480;2022-09-02T14:25:18;29.80;1.00
14924;DHT22;7554;43.600;1.480;2022-09-02T14:27:48;29.80;1.00
14924;DHT22;7554;43.600;1.480;2022-09-02T14:30:27;29.70;1.00
14924;DHT22;7554;43.600;1.480;2022-09-02T14:36:03;29.50;1.00
14924;DHT22;7554;43.600;1.480;2022-09-02T14:38:34;29.50;1.00
14924;DHT22;7554;43.600;1.480;2022-09-02T14:41:05;29.40;1.00
14924;DHT22;7554;43.600;1.480;2022-09-02T14:43:41;29.30;1.00
14924;DHT22;7554;43.600;1.480;2022-09-02T14:46:24;29.20;1.00
14924;DHT22;7554;43.600;1.480;2022-09-02T14:48:56;29.30;1.00
14924;DHT22;7554;43.600;1.480;2022-09-02T14:51:32;29.60;1.00
14924;DHT22;7554;43.600;1.480;2022-09-02T14:54:00;29.90;1.00
14924;DHT22;7554;43.600;1.480;2022-09-02T14:56:45;30.00;1.00
14924;DHT22;7554;43.600;1.480;2022-09-02T14:59:13;30.10;1.00
14924;DHT22;7554;43.600;1.480;2022-09-02T15:01:42;29.70;1.00
14924;DHT22;7554;43.600;1.480;2022-09-02T15:04:12;29.40;1.00
14924;DHT22;7554;43.600;1.480;2022-09-02T15:06:41;29.40;1.00
14924;DHT22;7554;43.600;1.480;2022-09-02T15:09:09;29.40;1.00
14924;DHT22;7554;43.600;1.480;2022-09-02T15:11:37;29.40;1.00
14924;DHT22;7554;43.600;1.480;2022-09-02T15:14:06;29.40;1.00
14924;DHT22;7554;43.600;1.480;2022-09-02T15:16:33;29.60;1.00
14924;DHT22;7554;43.600;1.480;2022-09-02T15:19:01;29.70;1.00
14924;DHT22;7554;43.600;1.480;2022-09-02T15:21:28;29.80;1.00
14924;DHT22;7554;43.600;1.480;2022-09-02T15:23:57;29.80;1.00
14924;DHT22;7554;43.600;1.480;2022-09-02T15:26:24;29.70;1.00
14924;DHT22;7554;43.600;1.480;2022-09-02T15:28:52;29.70;1.00
14924;DHT22;7554;43.600;1.480;2022-09-02T15:31:19;29.60;1.00
14924;DHT22;7554;43.600;1.480;2022-09-02T15:33:49;29.40;1.00
14924;DHT22;7554;43.600;1.480;2022-09-02T15:36:16;29.10;1.00
14924;DHT22;7554;43.600;1.480;2022-09-02T15:38:44;29.10;1.00
14924;DHT22;7554;43.600;1.480;2022-09-02T15:41:15;29.00;1.00
14924;DHT22;7554;43.600;1.480;2022-09-02T15:43:43;29.00;1.00
14924;DHT22;7554;43.600;1.480;2022-09-02T15:46:18;28.90;1.00
14924;DHT22;7554;43.600;1.480;2022-09-02T15:48:48;29.00;1.00
14924;DHT22;7554;43.600;1.480;2022-09-02T15:51:17;28.90;1.00
14924;DHT22;7554;43.600;1.480;2022-09-02T15:53:45;28.90;1.00
14924;DHT22;7554;43.600;1.480;2022-09-02T15:56:19;28.80;1.00
14924;DHT22;7554;43.600;1.480;2022-09-02T15:58:47;28.70;1.00
14924;DHT22;7554;43.600;1.480;2022-09-02T16:01:23;28.80;1.00
14924;DHT22;7554;43.600;1.480;2022-09-02T16:03:51;28.70;1.00
14924;DHT22;7554;43.600;1.480;2022-09-02T16:06:18;28.60;1.00
14924;DHT22;7554;43.600;1.480;2022-09-02T16:08:45;28.70;1.00
14924;DHT22;7554;43.600;1.480;2022-09-02T16:11:13;28.60;1.00
14924;DHT22;7554;43.600;1.480;2022-09-02T16:13:42;28.60;1.00
14924;DHT22;7554;43.600;1.480;2022-09-02T16:16:11;28.60;1.00
14924;DHT22;7554;43.600;1.480;2022-09-02T16:18:39;28.60;1.00
14924;DHT22;7554;43.600;1.480;2022-09-02T16:21:09;28.30;1.00
14924;DHT22;7554;43.600;1.480;2022-09-02T16:23:36;28.20;1.00
14924;DHT22;7554;43.600;1.480;2022-09-02T16:26:12;28.20;1.00
14924;DHT22;7554;43.600;1.480;2022-09-02T16:28:43;28.00;1.00
14924;DHT22;7554;43.600;1.480;2022-09-02T16:31:12;28.10;1.00
14924;DHT22;7554;43.600;1.480;2022-09-02T16:33:42;28.20;1.00
14924;DHT22;7554;43.600;1.480;2022-09-02T16:36:10;28.30;1.00
14924;DHT22;7554;43.600;1.480;2022-09-02T16:38:37;28.40;1.00
14924;DHT22;7554;43.600;1.480;2022-09-02T16:41:05;28.50;1.00
14924;DHT22;7554;43.600;1.480;2022-09-02T16:43:32;28.50;1.00
14924;DHT22;7554;43.600;1.480;2022-09-02T16:46:01;28.50;1.00